createdAt,value
2018-05-02T00:00:18.979Z,54.53
2018-05-02T00:01:18.924Z,53.77
2018-05-02T00:03:11.767Z,52.83
2018-05-02T00:04:11.740Z,52.73
2018-05-02T00:06:04.596Z,51.97
2018-05-02T00:07:04.561Z,51.40
2018-05-02T00:08:57.403Z,51.12
2018-05-02T00:09:57.377Z,52.73
2018-05-02T00:11:50.233Z,58.23
2018-05-02T00:12:50.197Z,63.35
2018-05-02T00:14:43.043Z,62.02
2018-05-02T00:15:43.013Z,63.35
2018-05-02T00:17:35.868Z,59.27
2018-05-02T00:18:35.832Z,58.23
2018-05-02T00:20:28.678Z,53.96
2018-05-02T00:21:28.651Z,51.50
2018-05-02T00:23:21.504Z,51.47
2018-05-02T00:24:21.477Z,48.54
2018-05-02T00:26:14.319Z,46.73
2018-05-02T00:27:14.291Z,44.67
2018-05-02T00:29:07.149Z,47.30
2018-05-02T00:30:07.104Z,47.11
2018-05-02T00:31:59.950Z,49.86
2018-05-02T00:32:59.929Z,48.54
2018-05-02T00:34:52.795Z,48.34
2018-05-02T00:35:52.743Z,47.20
2018-05-02T00:37:45.583Z,47.42
2018-05-02T00:38:45.560Z,49.22
2018-05-02T00:40:38.407Z,51.40
2018-05-02T00:41:38.375Z,53.20
2018-05-02T00:43:31.217Z,57.47
2018-05-02T00:44:31.192Z,58.42
2018-05-02T00:46:24.048Z,61.46
2018-05-02T00:47:24.012Z,63.73
2018-05-02T00:49:16.849Z,61.36
2018-05-02T00:50:16.827Z,63.07
2018-05-02T00:52:09.688Z,61.93
2018-05-02T00:53:09.654Z,59.84
2018-05-02T00:55:02.493Z,56.97
2018-05-02T00:56:02.466Z,55.83
2018-05-02T00:57:55.319Z,54.60
2018-05-02T00:58:55.283Z,53.75
2018-05-02T01:00:48.123Z,55.83
2018-05-02T01:01:48.099Z,56.87
2018-05-02T01:03:40.955Z,55.07
2018-05-02T01:04:40.918Z,53.27
2018-05-02T01:06:33.756Z,50.62
2018-05-02T01:07:33.732Z,47.68
2018-05-02T01:09:26.588Z,45.50
2018-05-02T01:10:26.550Z,43.13
2018-05-02T01:12:19.391Z,42.75
2018-05-02T01:13:19.366Z,41.71
2018-05-02T01:15:12.220Z,41.61
2018-05-02T01:16:12.182Z,42.85
2018-05-02T01:18:05.026Z,46.16
2018-05-02T01:19:05.001Z,46.16
2018-05-02T01:20:57.856Z,48.06
2018-05-02T01:21:57.824Z,47.11
2018-05-02T01:23:50.656Z,47.11
2018-05-02T01:24:50.632Z,49.95
2018-05-02T01:26:43.494Z,50.62
2018-05-02T01:27:43.451Z,51.37
2018-05-02T01:29:36.293Z,48.25
2018-05-02T01:30:36.268Z,47.96
2018-05-02T01:32:29.127Z,47.02
2018-05-02T01:33:29.087Z,47.18
2018-05-02T01:35:21.934Z,45.40
2018-05-02T01:36:21.910Z,45.88
2018-05-02T01:38:14.762Z,45.21
2018-05-02T01:39:14.722Z,46.07
2018-05-02T01:41:07.567Z,41.33
2018-05-02T01:42:07.572Z,39.72
2018-05-02T01:44:00.395Z,36.87
2018-05-02T01:45:00.362Z,36.10
2018-05-02T01:46:53.197Z,35.15
2018-05-02T01:47:53.172Z,34.58
2018-05-02T01:49:46.033Z,33.16
2018-05-02T01:50:45.987Z,32.68
2018-05-02T01:52:38.838Z,32.68
2018-05-02T01:53:38.809Z,32.87
2018-05-02T01:55:31.667Z,36.11
2018-05-02T01:56:31.629Z,36.29
2018-05-02T01:58:24.466Z,35.81
2018-05-02T01:59:24.442Z,35.62
2018-05-02T02:01:17.308Z,37.42
2018-05-02T02:02:17.263Z,38.39
2018-05-02T02:04:10.115Z,38.39
2018-05-02T02:05:10.087Z,38.39
2018-05-02T02:07:02.935Z,40.38
2018-05-02T02:08:02.904Z,42.18
2018-05-02T02:09:55.739Z,46.07
2018-05-02T02:10:55.714Z,48.06
2018-05-02T02:12:48.570Z,50.71
2018-05-02T02:13:48.539Z,51.57
2018-05-02T02:15:41.373Z,52.98
2018-05-02T02:16:41.349Z,55.55
2018-05-02T02:18:34.205Z,57.44
2018-05-02T02:19:34.169Z,57.82
2018-05-02T02:21:27.015Z,60.76
2018-05-02T02:22:26.991Z,60.86
2018-05-02T02:24:19.837Z,61.90
2018-05-02T02:25:19.802Z,62.66
2018-05-02T02:27:12.652Z,68.73
2018-05-02T02:28:12.621Z,70.05
2018-05-02T02:30:05.481Z,71.38
2018-05-02T02:31:05.444Z,69.48
2018-05-02T02:32:58.285Z,69.77
2018-05-02T02:33:58.373Z,68.15
2018-05-02T02:35:51.120Z,68.35
2018-05-02T02:36:51.081Z,67.96
2018-05-02T02:38:43.920Z,68.82
2018-05-02T02:39:43.895Z,69.77
2018-05-02T02:41:36.751Z,70.05
2018-05-02T02:42:36.712Z,70.62
2018-05-02T02:44:29.555Z,71.47
2018-05-02T02:45:29.554Z,69.42
2018-05-02T02:47:22.386Z,68.85
2018-05-02T02:48:22.348Z,72.80
2018-05-02T02:50:15.191Z,74.92
2018-05-02T02:51:15.159Z,78.53
2018-05-02T02:53:08.020Z,76.15
2018-05-02T02:54:07.981Z,77.39
2018-05-02T02:56:00.822Z,81.75
2018-05-02T02:57:00.800Z,82.70
2018-05-02T02:58:53.650Z,84.03
2018-05-02T02:59:53.614Z,84.31
2018-05-02T03:01:46.456Z,83.17
2018-05-02T03:02:46.430Z,82.42
2018-05-02T03:04:39.291Z,87.63
2018-05-02T03:05:39.252Z,88.01
2018-05-02T03:07:32.098Z,90.86
2018-05-02T03:08:32.070Z,89.25
2018-05-02T03:10:24.920Z,91.24
2018-05-02T03:11:24.882Z,87.54
2018-05-02T03:13:17.724Z,90.48
2018-05-02T03:14:17.701Z,91.47
2018-05-02T03:16:10.554Z,92.33
2018-05-02T03:17:10.517Z,93.56
2018-05-02T03:19:03.360Z,94.98
2018-05-02T03:20:03.338Z,93.94
2018-05-02T03:21:56.190Z,95.84
2018-05-02T03:22:56.153Z,94.23
2018-05-02T03:24:48.999Z,92.52
2018-05-02T03:25:48.973Z,97.74
2018-05-02T03:27:41.906Z,95.27
2018-05-02T03:28:41.793Z,97.74
2018-05-02T03:30:34.642Z,95.27
2018-05-02T03:31:34.618Z,96.31
2018-05-02T03:33:27.464Z,95.55
2018-05-02T03:34:27.435Z,95.46
2018-05-02T03:36:20.339Z,94.03
2018-05-02T03:37:20.255Z,94.60
2018-05-02T03:39:13.115Z,96.22
2018-05-02T03:40:13.080Z,93.94
2018-05-02T03:42:05.932Z,95.55
2018-05-02T03:43:05.904Z,95.27
2018-05-02T03:44:58.756Z,92.90
2018-05-02T03:45:58.720Z,94.13
2018-05-02T03:47:51.561Z,96.12
2018-05-02T03:48:51.541Z,97.45
2018-05-02T03:50:44.392Z,97.07
2018-05-02T03:51:44.356Z,97.45
2018-05-02T03:53:37.204Z,99.73
2018-05-02T03:54:37.184Z,98.59
2018-05-02T03:56:30.056Z,99.99
2018-05-02T03:57:30.001Z,99.99
2018-05-02T03:59:22.848Z,99.99
2018-05-02T04:00:22.822Z,98.40
2018-05-02T04:02:15.680Z,98.73
2018-05-02T04:03:15.644Z,98.68
2018-05-02T04:05:08.490Z,96.88
2018-05-02T04:06:08.464Z,97.92
2018-05-02T04:08:01.321Z,99.02
2018-05-02T04:09:01.287Z,98.64
2018-05-02T04:10:54.148Z,98.92
2018-05-02T04:11:54.132Z,99.06
2018-05-02T04:13:46.977Z,99.21
2018-05-02T04:14:46.945Z,97.02
2018-05-02T04:16:39.788Z,98.35
2018-05-02T04:17:39.765Z,97.60
2018-05-02T04:19:32.622Z,98.54
2018-05-02T04:20:32.627Z,99.99
2018-05-02T04:22:25.430Z,99.99
2018-05-02T04:23:25.407Z,99.99
2018-05-02T04:25:18.267Z,99.99
2018-05-02T04:26:18.228Z,99.99
2018-05-02T04:28:11.072Z,99.99
2018-05-02T04:29:11.048Z,99.99
2018-05-02T04:31:03.905Z,99.99
2018-05-02T04:32:03.873Z,99.99
2018-05-02T04:33:56.720Z,99.99
2018-05-02T04:34:56.697Z,99.99
2018-05-02T04:36:49.556Z,99.99
2018-05-02T04:37:49.525Z,99.99
2018-05-02T04:39:42.365Z,99.99
2018-05-02T04:40:42.345Z,99.99
2018-05-02T04:42:35.201Z,99.99
2018-05-02T04:43:35.167Z,99.99
2018-05-02T04:45:28.011Z,99.99
2018-05-02T04:46:27.988Z,99.99
2018-05-02T04:48:20.845Z,99.99
2018-05-02T04:49:20.814Z,99.99
2018-05-02T04:51:13.660Z,99.99
2018-05-02T04:52:13.638Z,99.99
2018-05-02T04:54:06.497Z,99.99
2018-05-02T04:55:06.461Z,99.99
2018-05-02T04:56:59.315Z,99.99
2018-05-02T04:57:59.288Z,99.99
2018-05-02T04:59:52.158Z,99.99
2018-05-02T05:00:52.110Z,99.99
2018-05-02T05:02:44.956Z,99.99
2018-05-02T05:03:44.935Z,99.99
2018-05-02T05:05:37.836Z,99.99
2018-05-02T05:06:37.767Z,99.99
2018-05-02T05:08:30.606Z,99.99
2018-05-02T05:09:30.577Z,99.99
2018-05-02T05:11:23.441Z,99.99
2018-05-02T05:12:23.410Z,99.99
2018-05-02T05:14:16.248Z,99.99
2018-05-02T05:15:16.225Z,99.99
2018-05-02T05:17:09.090Z,99.99
2018-05-02T05:18:09.054Z,99.99
2018-05-02T05:20:01.900Z,99.99
2018-05-02T05:21:01.881Z,99.99
2018-05-02T05:22:54.734Z,99.99
2018-05-02T05:23:54.701Z,99.99
2018-05-02T05:25:47.546Z,99.99
2018-05-02T05:26:47.525Z,99.99
2018-05-02T05:28:40.383Z,99.99
2018-05-02T05:29:40.347Z,99.99
2018-05-02T05:31:33.195Z,99.99
2018-05-02T05:32:33.174Z,99.99
2018-05-02T05:34:26.031Z,99.99
2018-05-02T05:35:26.006Z,99.99
2018-05-02T05:37:18.853Z,99.99
2018-05-02T05:38:18.830Z,99.99
2018-05-02T05:40:11.686Z,99.99
2018-05-02T05:41:11.651Z,99.99
2018-05-02T05:43:04.506Z,99.99
2018-05-02T05:44:04.475Z,99.99
2018-05-02T05:45:58.339Z,99.99
2018-05-02T05:46:58.300Z,99.99
2018-05-02T05:48:51.151Z,99.99
2018-05-02T05:49:51.127Z,99.99
2018-05-02T05:51:43.983Z,99.99
2018-05-02T05:52:43.954Z,99.99
2018-05-02T05:54:36.804Z,99.99
2018-05-02T05:55:36.782Z,99.99
2018-05-02T05:57:29.644Z,99.99
2018-05-02T05:58:29.609Z,99.99
2018-05-02T06:00:22.456Z,99.99
2018-05-02T06:01:22.435Z,99.99
2018-05-02T06:03:15.299Z,99.99
2018-05-02T06:04:15.265Z,99.99
2018-05-02T06:06:08.191Z,99.99
2018-05-02T06:07:08.091Z,99.99
2018-05-02T06:09:00.950Z,99.99
2018-05-02T06:10:00.920Z,99.99
2018-05-02T06:11:53.774Z,99.99
2018-05-02T06:12:53.751Z,99.99
2018-05-02T06:14:46.616Z,99.99
2018-05-02T06:15:46.582Z,99.99
2018-05-02T06:17:39.432Z,99.99
2018-05-02T06:18:39.497Z,99.99
2018-05-02T06:20:32.279Z,99.99
2018-05-02T06:21:32.246Z,99.99
2018-05-02T06:23:25.172Z,99.99
2018-05-02T06:24:25.077Z,99.99
2018-05-02T06:26:18.011Z,99.99
2018-05-02T06:27:17.912Z,99.99
2018-05-02T06:29:10.763Z,99.99
2018-05-02T06:30:10.747Z,99.99
2018-05-02T06:32:03.614Z,99.99
2018-05-02T06:33:03.578Z,99.99
2018-05-02T06:34:56.433Z,99.99
2018-05-02T06:35:56.413Z,99.99
2018-05-02T06:37:49.310Z,99.99
2018-05-02T06:38:49.253Z,99.99
2018-05-02T06:40:42.106Z,99.99
2018-05-02T06:41:42.088Z,99.99
2018-05-02T06:43:34.965Z,99.99
2018-05-02T06:44:34.922Z,99.99
2018-05-02T06:46:27.771Z,99.99
2018-05-02T06:47:27.753Z,99.99
2018-05-02T06:49:20.698Z,99.99
2018-05-02T06:50:20.593Z,99.99
2018-05-02T06:52:13.441Z,99.99
2018-05-02T06:53:13.427Z,99.99
2018-05-02T06:55:06.290Z,99.99
2018-05-02T06:56:06.260Z,99.99
2018-05-02T06:57:59.119Z,99.99
2018-05-02T06:58:59.098Z,99.99
2018-05-02T07:00:52.053Z,99.99
2018-05-02T07:01:51.935Z,99.99
2018-05-02T07:03:44.790Z,99.99
2018-05-02T07:04:44.771Z,99.99
2018-05-02T07:06:37.639Z,99.99
2018-05-02T07:07:37.607Z,98.80
2018-05-02T07:09:30.462Z,99.99
2018-05-02T07:10:30.442Z,98.80
2018-05-02T07:12:23.307Z,92.31
2018-05-02T07:13:23.286Z,93.02
2018-05-02T07:15:16.139Z,88.40
2018-05-02T07:16:16.120Z,90.93
2018-05-02T07:18:08.995Z,90.69
2018-05-02T07:19:08.966Z,92.98
2018-05-02T07:21:01.839Z,93.93
2018-05-02T07:22:01.817Z,97.46
2018-05-02T07:23:54.686Z,89.88
2018-05-02T07:24:54.656Z,92.41
2018-05-02T07:26:47.525Z,91.78
2018-05-02T07:27:47.504Z,91.74
2018-05-02T07:29:40.367Z,95.56
2018-05-02T07:30:40.344Z,95.17
2018-05-02T07:32:33.343Z,89.21
2018-05-02T07:33:33.185Z,91.07
2018-05-02T07:35:26.056Z,87.25
2018-05-02T07:36:26.026Z,88.78
2018-05-02T07:38:18.883Z,91.55
2018-05-02T07:39:18.871Z,88.26
2018-05-02T07:41:11.743Z,87.93
2018-05-02T07:42:11.737Z,87.78
2018-05-02T07:44:04.571Z,83.05
2018-05-02T07:45:04.556Z,86.06
2018-05-02T07:46:57.420Z,81.62
2018-05-02T07:47:57.398Z,82.48
2018-05-02T07:49:50.261Z,77.26
2018-05-02T07:50:50.244Z,84.16
2018-05-02T07:52:43.117Z,80.22
2018-05-02T07:53:43.092Z,76.45
2018-05-02T07:55:35.953Z,76.88
2018-05-02T07:56:36.017Z,77.21
2018-05-02T07:58:28.811Z,74.73
2018-05-02T07:59:28.784Z,75.30
2018-05-02T08:01:21.647Z,71.51
2018-05-02T08:02:21.631Z,69.79
2018-05-02T08:04:14.506Z,71.38
2018-05-02T08:05:14.478Z,69.82
2018-05-02T08:07:07.337Z,69.70
2018-05-02T08:08:07.323Z,69.41
2018-05-02T08:10:00.203Z,71.47
2018-05-02T08:11:00.255Z,69.66
2018-05-02T08:12:53.040Z,69.79
2018-05-02T08:13:53.022Z,68.70
2018-05-02T08:15:45.898Z,68.70
2018-05-02T08:16:45.875Z,68.55
2018-05-02T08:18:38.744Z,69.18
2018-05-02T08:19:38.727Z,69.21
2018-05-02T08:21:31.607Z,69.21
2018-05-02T08:22:31.581Z,68.45
2018-05-02T08:24:24.446Z,67.27
2018-05-02T08:25:24.427Z,66.06
2018-05-02T08:27:17.314Z,68.01
2018-05-02T08:28:17.283Z,66.41
2018-05-02T08:30:10.151Z,66.86
2018-05-02T08:31:10.133Z,65.97
2018-05-02T08:33:03.010Z,64.31
2018-05-02T08:34:02.988Z,63.19
2018-05-02T08:35:55.865Z,63.10
2018-05-02T08:36:55.836Z,64.28
2018-05-02T08:38:48.766Z,64.12
2018-05-02T08:39:48.687Z,63.45
2018-05-02T08:41:41.558Z,65.61
2018-05-02T08:42:41.539Z,65.48
2018-05-02T08:44:34.415Z,64.95
2018-05-02T08:45:34.390Z,63.93
2018-05-02T08:47:27.255Z,67.36
2018-05-02T08:48:27.240Z,69.76
2018-05-02T08:50:20.114Z,70.56
2018-05-02T08:51:20.094Z,69.70
2018-05-02T08:53:12.959Z,67.05
2018-05-02T08:54:12.943Z,66.86
2018-05-02T08:56:05.821Z,67.21
2018-05-02T08:57:05.796Z,69.21
2018-05-02T08:58:58.662Z,67.18
2018-05-02T08:59:58.653Z,65.90
2018-05-02T09:01:51.562Z,67.59
2018-05-02T09:02:51.503Z,65.84
2018-05-02T09:04:44.365Z,65.33
2018-05-02T09:05:44.351Z,65.42
2018-05-02T09:07:37.223Z,65.74
2018-05-02T09:08:37.201Z,64.12
2018-05-02T09:10:30.071Z,65.52
2018-05-02T09:11:30.054Z,65.42
2018-05-02T09:13:22.929Z,65.74
2018-05-02T09:14:22.911Z,64.22
2018-05-02T09:16:15.768Z,63.26
2018-05-02T09:17:15.755Z,62.59
2018-05-02T09:19:08.632Z,64.59
2018-05-02T09:20:08.603Z,62.77
2018-05-02T09:22:01.471Z,63.93
2018-05-02T09:23:01.458Z,63.26
2018-05-02T09:24:54.405Z,60.99
2018-05-02T09:25:54.313Z,62.40
2018-05-02T09:27:47.173Z,65.39
2018-05-02T09:28:47.157Z,65.14
2018-05-02T09:30:40.037Z,62.97
2018-05-02T09:31:40.010Z,62.23
2018-05-02T09:33:32.877Z,63.26
2018-05-02T09:34:32.864Z,62.11
2018-05-02T09:36:25.737Z,63.60
2018-05-02T09:37:25.713Z,62.77
2018-05-02T09:39:18.580Z,60.96
2018-05-02T09:40:18.565Z,62.23
2018-05-02T09:42:11.442Z,63.16
2018-05-02T09:43:11.412Z,62.77
2018-05-02T09:45:04.276Z,64.95
2018-05-02T09:46:04.260Z,63.10
2018-05-02T09:47:57.137Z,61.82
2018-05-02T09:48:57.111Z,62.68
2018-05-02T09:50:49.977Z,63.99
2018-05-02T09:51:49.960Z,65.87
2018-05-02T09:53:42.833Z,64.37
2018-05-02T09:54:42.807Z,64.22
2018-05-02T09:56:35.671Z,63.16
2018-05-02T09:57:35.657Z,62.97
2018-05-02T09:59:28.537Z,62.01
2018-05-02T10:00:28.504Z,61.44
2018-05-02T10:02:21.365Z,64.09
2018-05-02T10:03:21.349Z,65.36
2018-05-02T10:05:14.221Z,66.16
2018-05-02T10:06:14.194Z,66.25
2018-05-02T10:08:07.056Z,64.22
2018-05-02T10:09:07.038Z,61.91
2018-05-02T10:10:59.908Z,61.12
2018-05-02T10:11:59.889Z,62.65
2018-05-02T10:13:52.748Z,63.32
2018-05-02T10:14:52.731Z,64.09
2018-05-02T10:16:45.603Z,62.84
2018-05-02T10:17:45.578Z,62.11
2018-05-02T10:19:38.435Z,60.00
2018-05-02T10:20:38.423Z,59.62
2018-05-02T10:22:31.293Z,59.33
2018-05-02T10:23:31.274Z,59.33
2018-05-02T10:25:24.129Z,58.95
2018-05-02T10:26:24.138Z,60.35
2018-05-02T10:28:17.004Z,60.93
2018-05-02T10:29:16.983Z,61.25
2018-05-02T10:31:09.842Z,60.77
2018-05-02T10:32:09.827Z,59.75
2018-05-02T10:34:02.701Z,62.01
2018-05-02T10:35:02.672Z,61.54
2018-05-02T10:36:55.565Z,58.62
2018-05-02T10:37:55.520Z,58.72
2018-05-02T10:39:48.390Z,59.11
2018-05-02T10:40:48.361Z,59.77
2018-05-02T10:42:41.296Z,59.20
2018-05-02T10:43:41.211Z,59.27
2018-05-02T10:45:34.080Z,58.17
2018-05-02T10:46:34.057Z,57.63
2018-05-02T10:48:26.920Z,55.71
2018-05-02T10:49:26.903Z,54.94
2018-05-02T10:51:19.781Z,53.66
2018-05-02T10:52:19.757Z,54.49
2018-05-02T10:54:12.617Z,53.91
2018-05-02T10:55:12.605Z,53.56
2018-05-02T10:57:05.481Z,54.21
2018-05-02T10:58:05.461Z,53.15
2018-05-02T10:59:58.321Z,53.94
2018-05-02T11:00:58.307Z,53.05
2018-05-02T11:02:51.191Z,55.01
2018-05-02T11:03:51.165Z,53.63
2018-05-02T11:05:44.033Z,53.96
2018-05-02T11:06:44.020Z,53.53
2018-05-02T11:08:36.896Z,52.71
2018-05-02T11:09:36.878Z,54.63
2018-05-02T11:11:29.743Z,55.18
2018-05-02T11:12:29.730Z,53.77
2018-05-02T11:14:22.606Z,52.42
2018-05-02T11:15:22.586Z,52.26
2018-05-02T11:17:15.454Z,51.44
2018-05-02T11:18:15.441Z,53.28
2018-05-02T11:20:08.320Z,52.22
2018-05-02T11:21:08.297Z,51.87
2018-05-02T11:23:01.162Z,51.68
2018-05-02T11:24:01.152Z,51.14
2018-05-02T11:25:54.035Z,50.43
2018-05-02T11:26:54.004Z,50.99
2018-05-02T11:28:46.873Z,53.16
2018-05-02T11:29:46.864Z,53.45
2018-05-02T11:31:39.739Z,52.50
2018-05-02T11:32:39.718Z,52.20
2018-05-02T11:34:32.590Z,51.71
2018-05-02T11:35:32.576Z,51.04
2018-05-02T11:37:25.472Z,49.10
2018-05-02T11:38:25.437Z,47.39
2018-05-02T11:40:18.312Z,48.85
2018-05-02T11:41:18.299Z,48.85
2018-05-02T11:43:11.174Z,50.56
2018-05-02T11:44:11.150Z,49.69
2018-05-02T11:46:04.038Z,48.61
2018-05-02T11:47:04.021Z,47.30
2018-05-02T11:48:56.883Z,46.43
2018-05-02T11:49:56.862Z,45.39
2018-05-02T11:51:49.739Z,44.79
2018-05-02T11:52:49.726Z,45.06
2018-05-02T11:54:42.609Z,45.49
2018-05-02T11:55:42.591Z,44.56
2018-05-02T11:57:35.463Z,46.96
2018-05-02T11:58:35.447Z,47.72
2018-05-02T12:00:28.349Z,45.73
2018-05-02T12:01:28.303Z,45.71
2018-05-02T12:03:21.687Z,47.17
2018-05-02T12:04:21.162Z,45.56
2018-05-02T12:06:14.035Z,46.31
2018-05-02T12:07:14.018Z,45.29
2018-05-02T12:09:06.887Z,45.61
2018-05-02T12:10:06.881Z,47.36
2018-05-02T12:11:59.758Z,45.47
2018-05-02T12:12:59.736Z,44.72
2018-05-02T12:14:52.605Z,44.60
2018-05-02T12:15:52.592Z,44.60
2018-05-02T12:17:45.471Z,46.21
2018-05-02T12:18:45.448Z,45.18
2018-05-02T12:20:38.319Z,45.42
2018-05-02T12:21:38.308Z,44.70
2018-05-02T12:23:31.190Z,46.14
2018-05-02T12:24:31.164Z,46.50
2018-05-02T12:26:24.037Z,46.12
2018-05-02T12:27:24.023Z,46.41
2018-05-02T12:29:16.909Z,47.56
2018-05-02T12:30:16.886Z,47.22
2018-05-02T12:32:09.762Z,47.58
2018-05-02T12:33:09.806Z,47.34
2018-05-02T12:35:02.624Z,45.97
2018-05-02T12:36:02.605Z,46.16
2018-05-02T12:37:55.473Z,47.10
2018-05-02T12:38:55.463Z,47.94
2018-05-02T12:40:48.382Z,47.13
2018-05-02T12:41:48.324Z,47.27
2018-05-02T12:43:41.194Z,45.73
2018-05-02T12:44:41.183Z,43.68
2018-05-02T12:46:34.081Z,43.03
2018-05-02T12:47:34.044Z,42.91
2018-05-02T12:49:26.910Z,44.31
2018-05-02T12:50:26.899Z,44.72
2018-05-02T12:52:19.780Z,44.72
2018-05-02T12:53:19.758Z,44.79
2018-05-02T12:55:12.631Z,46.64
2018-05-02T12:56:12.728Z,46.06
2018-05-02T12:58:05.497Z,44.65
2018-05-02T12:59:05.472Z,45.49
2018-05-02T13:00:58.343Z,47.39
2018-05-02T13:01:58.334Z,46.74
2018-05-02T13:03:51.212Z,44.55
2018-05-02T13:04:51.188Z,43.49
2018-05-02T13:06:44.067Z,42.91
2018-05-02T13:07:44.053Z,41.86
2018-05-02T13:09:36.929Z,43.35
2018-05-02T13:10:36.912Z,46.00
2018-05-02T13:12:29.782Z,47.53
2018-05-02T13:13:29.767Z,47.27
2018-05-02T13:15:22.655Z,47.58
2018-05-02T13:16:22.627Z,46.23
2018-05-02T13:18:15.500Z,44.17
2018-05-02T13:19:15.489Z,43.11
2018-05-02T13:21:08.371Z,42.91
2018-05-02T13:22:08.347Z,43.85
2018-05-02T13:24:02.213Z,42.84
2018-05-02T13:25:02.202Z,44.14
2018-05-02T13:26:55.085Z,42.91
2018-05-02T13:27:55.067Z,42.93
2018-05-02T13:29:47.939Z,42.07
2018-05-02T13:30:47.928Z,42.93
2018-05-02T13:32:40.811Z,45.08
2018-05-02T13:33:40.785Z,43.05
2018-05-02T13:35:33.662Z,42.93
2018-05-02T13:36:33.651Z,43.03
2018-05-02T13:38:26.531Z,43.20
2018-05-02T13:39:26.557Z,42.96
2018-05-02T13:41:19.384Z,42.55
2018-05-02T13:42:19.372Z,43.13
2018-05-02T13:44:12.252Z,41.63
2018-05-02T13:45:12.237Z,41.13
2018-05-02T13:47:05.112Z,39.61
2018-05-02T13:48:05.097Z,40.55
2018-05-02T13:49:57.984Z,41.89
2018-05-02T13:50:57.961Z,41.66
2018-05-02T13:52:50.829Z,42.26
2018-05-02T13:53:50.819Z,42.19
2018-05-02T13:55:43.697Z,42.09
2018-05-02T13:56:43.679Z,41.63
2018-05-02T13:58:36.550Z,41.97
2018-05-02T13:59:36.537Z,42.89
2018-05-02T14:01:29.421Z,42.96
2018-05-02T14:02:29.399Z,42.46
2018-05-02T14:04:22.268Z,43.13
2018-05-02T14:05:22.257Z,43.01
2018-05-02T14:07:15.141Z,43.20
2018-05-02T14:08:15.192Z,43.88
2018-05-02T14:10:07.985Z,43.40
2018-05-02T14:11:07.975Z,43.99
2018-05-02T14:13:00.853Z,44.26
2018-05-02T14:14:00.833Z,44.07
2018-05-02T14:15:53.708Z,43.32
2018-05-02T14:16:53.694Z,44.00
2018-05-02T14:18:46.574Z,42.84
2018-05-02T14:19:46.549Z,43.08
2018-05-02T14:21:39.420Z,43.01
2018-05-02T14:22:39.410Z,43.59
2018-05-02T14:24:32.297Z,43.05
2018-05-02T14:25:32.273Z,41.71
2018-05-02T14:27:25.144Z,42.40
2018-05-02T14:28:25.132Z,40.11
2018-05-02T14:30:18.011Z,39.64
2018-05-02T14:31:17.997Z,41.88
2018-05-02T14:33:10.868Z,43.76
2018-05-02T14:34:10.855Z,43.97
2018-05-02T14:36:03.745Z,42.82
2018-05-02T14:37:03.716Z,42.26
2018-05-02T14:38:56.589Z,43.20
2018-05-02T14:39:56.578Z,42.91
2018-05-02T14:41:49.460Z,43.20
2018-05-02T14:42:49.434Z,41.61
2018-05-02T14:44:42.307Z,41.99
2018-05-02T14:45:42.305Z,42.02
2018-05-02T14:47:35.173Z,42.93
2018-05-02T14:48:35.151Z,43.95
2018-05-02T14:50:28.022Z,43.78
2018-05-02T14:51:28.009Z,44.82
2018-05-02T14:53:20.889Z,46.04
2018-05-02T14:54:20.868Z,44.89
2018-05-02T14:56:13.770Z,46.33
2018-05-02T14:57:13.723Z,45.23
2018-05-02T14:59:06.611Z,45.76
2018-05-02T15:00:06.589Z,46.12
2018-05-02T15:01:59.490Z,45.73
2018-05-02T15:02:59.441Z,44.99
2018-05-02T15:04:52.319Z,46.69
2018-05-02T15:05:52.298Z,46.53
2018-05-02T15:07:45.163Z,46.04
2018-05-02T15:08:45.149Z,45.76
2018-05-02T15:10:38.030Z,45.49
2018-05-02T15:11:38.005Z,44.99
2018-05-02T15:13:30.896Z,44.72
2018-05-02T15:14:30.888Z,44.70
2018-05-02T15:16:23.755Z,45.49
2018-05-02T15:17:23.736Z,45.08
2018-05-02T15:19:16.601Z,44.82
2018-05-02T15:20:16.588Z,45.08
2018-05-02T15:22:09.468Z,47.39
2018-05-02T15:23:09.442Z,47.36
2018-05-02T15:25:02.329Z,46.62
2018-05-02T15:26:02.293Z,46.14
2018-05-02T15:27:55.171Z,46.16
2018-05-02T15:28:55.148Z,45.56
2018-05-02T15:30:48.012Z,46.14
2018-05-02T15:31:48.002Z,46.26
2018-05-02T15:33:40.977Z,45.49
2018-05-02T15:34:40.860Z,45.10
2018-05-02T15:36:33.723Z,45.49
2018-05-02T15:37:33.715Z,45.85
2018-05-02T15:39:26.600Z,47.36
2018-05-02T15:40:26.680Z,46.04
2018-05-02T15:42:19.443Z,45.25
2018-05-02T15:43:19.430Z,46.12
2018-05-02T15:45:12.306Z,46.23
2018-05-02T15:46:12.289Z,46.62
2018-05-02T15:48:05.175Z,46.02
2018-05-02T15:49:05.162Z,46.41
2018-05-02T15:50:58.037Z,45.56
2018-05-02T15:51:58.041Z,45.64
2018-05-02T15:53:50.892Z,46.69
2018-05-02T15:54:50.876Z,46.43
2018-05-02T15:56:43.750Z,45.81
2018-05-02T15:57:43.790Z,47.27
2018-05-02T15:59:36.590Z,47.46
2018-05-02T16:00:36.575Z,46.53
2018-05-02T16:02:29.453Z,46.98
2018-05-02T16:03:29.429Z,46.31
2018-05-02T16:05:22.323Z,46.59
2018-05-02T16:06:22.293Z,47.39
2018-05-02T16:08:15.167Z,47.53
2018-05-02T16:09:15.144Z,47.34
2018-05-02T16:11:08.012Z,47.25
2018-05-02T16:12:08.003Z,46.96
2018-05-02T16:14:00.875Z,46.50
2018-05-02T16:15:00.848Z,46.58
2018-05-02T16:16:53.712Z,48.49
2018-05-02T16:17:53.700Z,48.30
2018-05-02T16:19:46.621Z,48.11
2018-05-02T16:20:46.583Z,48.30
2018-05-02T16:22:39.447Z,48.95
2018-05-02T16:23:39.431Z,48.95
2018-05-02T16:25:32.309Z,48.66
2018-05-02T16:26:32.278Z,48.95
2018-05-02T16:28:25.139Z,49.24
2018-05-02T16:29:25.124Z,48.97
2018-05-02T16:31:18.002Z,49.05
2018-05-02T16:32:17.974Z,49.62
2018-05-02T16:34:10.841Z,48.88
2018-05-02T16:35:10.826Z,48.97
2018-05-02T16:37:03.701Z,48.85
2018-05-02T16:38:03.677Z,49.07
2018-05-02T16:39:56.533Z,48.97
2018-05-02T16:40:56.521Z,48.85
2018-05-02T16:42:49.397Z,49.52
2018-05-02T16:43:49.367Z,49.72
2018-05-02T16:45:42.233Z,50.20
2018-05-02T16:46:42.216Z,50.39
2018-05-02T16:48:35.090Z,50.58
2018-05-02T16:49:35.064Z,51.06
2018-05-02T16:51:27.926Z,50.39
2018-05-02T16:52:27.912Z,50.46
2018-05-02T16:54:20.858Z,50.84
2018-05-02T16:55:20.761Z,51.16
2018-05-02T16:57:13.621Z,50.87
2018-05-02T16:58:13.610Z,50.78
2018-05-02T17:00:06.482Z,50.84
2018-05-02T17:01:06.455Z,51.81
2018-05-02T17:02:59.317Z,51.23
2018-05-02T17:03:59.303Z,50.96
2018-05-02T17:05:52.179Z,51.64
2018-05-02T17:06:52.151Z,52.09
2018-05-02T17:08:45.017Z,52.67
2018-05-02T17:09:44.997Z,52.57
2018-05-02T17:11:37.871Z,51.71
2018-05-02T17:12:37.845Z,52.95
2018-05-02T17:14:30.707Z,52.57
2018-05-02T17:15:30.692Z,53.44
2018-05-02T17:17:23.565Z,53.53
2018-05-02T17:18:23.538Z,53.44
2018-05-02T17:20:16.397Z,53.91
2018-05-02T17:21:16.383Z,53.53
2018-05-02T17:23:09.257Z,54.01
2018-05-02T17:24:09.226Z,54.11
2018-05-02T17:26:02.090Z,54.58
2018-05-02T17:27:02.073Z,54.11
2018-05-02T17:28:54.941Z,55.04
2018-05-02T17:29:54.918Z,54.88
2018-05-02T17:31:47.779Z,55.26
2018-05-02T17:32:47.763Z,54.46
2018-05-02T17:34:40.639Z,55.42
2018-05-02T17:35:40.610Z,55.42
2018-05-02T17:37:33.472Z,56.09
2018-05-02T17:38:33.455Z,56.38
2018-05-02T17:40:26.323Z,56.54
2018-05-02T17:41:26.298Z,56.93
2018-05-02T17:43:19.155Z,56.45
2018-05-02T17:44:19.139Z,57.41
2018-05-02T17:46:12.024Z,57.03
2018-05-02T17:47:11.983Z,57.12
2018-05-02T17:49:04.841Z,57.31
2018-05-02T17:50:04.824Z,57.21
2018-05-02T17:51:57.697Z,58.91
2018-05-02T17:52:57.668Z,58.84
2018-05-02T17:54:50.577Z,58.75
2018-05-02T17:55:50.510Z,58.91
2018-05-02T17:57:43.388Z,59.04
2018-05-02T17:58:43.355Z,58.27
2018-05-02T18:00:36.212Z,58.24
2018-05-02T18:01:36.197Z,59.20
2018-05-02T18:03:29.070Z,59.30
2018-05-02T18:04:29.045Z,60.06
2018-05-02T18:06:21.910Z,59.77
2018-05-02T18:07:21.910Z,59.87
2018-05-02T18:09:14.755Z,60.16
2018-05-02T18:10:14.727Z,60.25
2018-05-02T18:12:07.584Z,59.97
2018-05-02T18:13:07.569Z,59.87
2018-05-02T18:15:00.432Z,60.13
2018-05-02T18:16:00.415Z,60.32
2018-05-02T18:17:53.263Z,60.70
2018-05-02T18:18:53.248Z,60.41
2018-05-02T18:20:46.122Z,60.89
2018-05-02T18:21:46.086Z,60.89
2018-05-02T18:23:38.952Z,61.57
2018-05-02T18:24:38.931Z,62.23
2018-05-02T18:26:31.917Z,62.62
2018-05-02T18:27:31.811Z,62.90
2018-05-02T18:29:24.669Z,63.57
2018-05-02T18:30:24.679Z,63.48
2018-05-02T18:32:17.518Z,64.15